Maumelle, Arkansas
Current Conditions -  °F | °C
As of 5:53 AM on Saturday 25 Oct 2014 (Local Time) from KLIT Reporting Station
Few Clouds Few Clouds  
Wind Chill: 58°   Ceiling: Unl
Heat Index: 58°   Visibility: 7mi
Dew Point: 54°   Wind: 3mph
Humidity: 87%   Direction: 250°WSW
Pressure: 30.11"   Gusts: NA
Location:  34.86°N, 92.4°W
Report Text: KLIT 251053Z 25003KT 7SM FEW250 14/12 A3011 RMK AO2 RAB07E17 SLP196 P0000 T01440122
Loading
Personal Weather Stations






























Interactive Weather Map
Tropical Storm Tracking
New forecast layout! Learn more

10-Day Weather Forecast

Advertisements
Track Severe Weather on mobile